createdAt,value
2018-05-18T00:01:36.239Z,13.71
2018-05-18T00:04:05.315Z,13.93
2018-05-18T00:06:34.549Z,13.66
2018-05-18T00:09:03.392Z,13.63
2018-05-18T00:11:31.784Z,13.45
2018-05-18T00:14:00.132Z,13.49
2018-05-18T00:16:28.500Z,13.30
2018-05-18T00:18:56.779Z,13.34
2018-05-18T00:21:25.400Z,13.45
2018-05-18T00:23:53.837Z,13.44
2018-05-18T00:26:23.040Z,13.69
2018-05-18T00:28:52.054Z,13.54
2018-05-18T00:31:21.683Z,13.28
2018-05-18T00:33:50.020Z,13.33
2018-05-18T00:36:18.376Z,13.31
2018-05-18T00:38:47.642Z,13.24
2018-05-18T00:41:16.044Z,13.04
2018-05-18T00:43:44.430Z,13.06
2018-05-18T00:46:13.193Z,13.07
2018-05-18T00:48:41.501Z,13.12
2018-05-18T00:51:09.858Z,13.13
2018-05-18T00:53:38.245Z,13.14
2018-05-18T00:56:06.556Z,13.16
2018-05-18T00:58:34.846Z,12.93
2018-05-18T01:01:05.678Z,12.91
2018-05-18T01:03:35.355Z,12.68
2018-05-18T01:06:03.687Z,12.54
2018-05-18T01:08:32.114Z,12.52
2018-05-18T01:11:00.354Z,12.54
2018-05-18T01:13:28.661Z,12.59
2018-05-18T01:15:57.920Z,12.58
2018-05-18T01:18:26.182Z,12.60
2018-05-18T01:20:55.436Z,12.83
2018-05-18T01:23:24.379Z,12.94
2018-05-18T01:25:52.758Z,12.87
2018-05-18T01:28:21.067Z,12.66
2018-05-18T01:30:49.417Z,12.55
2018-05-18T01:33:17.718Z,12.63
2018-05-18T01:35:46.015Z,12.58
2018-05-18T01:38:14.347Z,12.59
2018-05-18T01:40:42.628Z,12.52
2018-05-18T01:43:10.931Z,12.53
2018-05-18T01:45:39.205Z,12.42
2018-05-18T01:48:07.522Z,12.45
2018-05-18T01:50:35.812Z,12.48
2018-05-18T01:53:04.793Z,12.47
2018-05-18T01:55:33.244Z,12.31
2018-05-18T01:58:01.577Z,12.34
2018-05-18T02:00:29.863Z,12.30
2018-05-18T02:02:58.141Z,12.31
2018-05-18T02:05:26.460Z,12.22
2018-05-18T02:07:54.822Z,12.13
2018-05-18T02:10:23.200Z,12.14
2018-05-18T02:12:51.478Z,12.02
2018-05-18T02:15:19.889Z,12.07
2018-05-18T02:17:48.147Z,12.10
2018-05-18T02:20:16.454Z,12.20
2018-05-18T02:22:44.747Z,12.16
2018-05-18T02:25:13.078Z,11.61
2018-05-18T02:27:41.372Z,11.70
2018-05-18T02:30:09.651Z,11.87
2018-05-18T02:32:37.939Z,11.91
2018-05-18T02:35:06.218Z,11.88
2018-05-18T02:37:34.522Z,11.86
2018-05-18T02:40:02.786Z,11.79
2018-05-18T02:42:32.333Z,11.75
2018-05-18T02:45:00.577Z,11.79
2018-05-18T02:47:28.855Z,11.76
2018-05-18T02:49:57.137Z,11.64
2018-05-18T02:52:25.434Z,10.78
2018-05-18T02:54:54.828Z,11.37
2018-05-18T02:57:23.171Z,11.39
2018-05-18T02:59:51.490Z,11.41
2018-05-18T03:02:19.928Z,11.40
2018-05-18T03:04:48.943Z,11.22
2018-05-18T03:07:17.253Z,11.26
2018-05-18T03:09:45.572Z,11.33
2018-05-18T03:12:14.402Z,11.56
2018-05-18T03:14:42.699Z,11.61
2018-05-18T03:17:10.986Z,11.47
2018-05-18T03:19:39.289Z,11.47
2018-05-18T03:22:07.624Z,11.42
2018-05-18T03:24:35.927Z,11.37
2018-05-18T03:27:04.881Z,11.38
2018-05-18T03:29:33.250Z,11.23
2018-05-18T03:32:01.573Z,11.30
2018-05-18T03:34:29.919Z,11.04
2018-05-18T03:36:58.420Z,10.72
2018-05-18T03:39:26.702Z,10.85
2018-05-18T03:41:55.649Z,11.00
2018-05-18T03:44:23.987Z,11.06
2018-05-18T03:46:52.317Z,11.14
2018-05-18T03:49:20.666Z,11.10
2018-05-18T03:51:49.007Z,11.15
2018-05-18T03:54:17.346Z,11.14
2018-05-18T03:56:45.615Z,11.17
2018-05-18T03:59:13.906Z,11.17
2018-05-18T04:01:54.042Z,11.18
2018-05-18T04:04:34.897Z,10.50
2018-05-18T04:07:15.845Z,10.58
2018-05-18T04:09:44.172Z,10.79
2018-05-18T04:12:12.497Z,10.85
2018-05-18T04:14:40.846Z,10.84
2018-05-18T04:17:09.142Z,10.85
2018-05-18T04:19:37.445Z,10.91
2018-05-18T04:22:05.794Z,10.84
2018-05-18T04:24:34.096Z,10.84
2018-05-18T04:27:02.434Z,10.83
2018-05-18T04:29:30.719Z,10.93
2018-05-18T04:31:59.132Z,10.96
2018-05-18T04:34:27.401Z,10.72
2018-05-18T04:36:55.720Z,10.82
2018-05-18T04:39:24.006Z,10.73
2018-05-18T04:41:52.310Z,10.79
2018-05-18T04:44:20.643Z,10.80
2018-05-18T04:46:48.978Z,11.01
2018-05-18T04:49:17.319Z,10.90
2018-05-18T04:51:45.595Z,10.97
2018-05-18T04:54:13.954Z,10.98
2018-05-18T04:56:42.232Z,10.93
2018-05-18T04:59:10.578Z,10.98
2018-05-18T05:01:38.902Z,10.89
2018-05-18T05:04:07.216Z,11.01
2018-05-18T05:06:35.490Z,11.04
2018-05-18T05:09:03.790Z,11.18
2018-05-18T05:11:32.074Z,11.37
2018-05-18T05:14:00.516Z,11.43
2018-05-18T05:16:28.782Z,11.49
2018-05-18T05:18:59.939Z,11.37
2018-05-18T05:21:28.218Z,11.39
2018-05-18T05:23:57.284Z,11.44
2018-05-18T05:26:25.551Z,11.63
2018-05-18T05:28:53.890Z,11.83
2018-05-18T05:31:22.210Z,11.76
2018-05-18T05:33:50.562Z,11.87
2018-05-18T05:36:18.931Z,12.21
2018-05-18T05:38:47.194Z,12.20
2018-05-18T05:41:15.771Z,12.15
2018-05-18T05:43:44.059Z,12.22
2018-05-18T05:46:12.398Z,12.29
2018-05-18T05:48:40.814Z,12.50
2018-05-18T05:51:09.399Z,12.77
2018-05-18T05:53:37.740Z,12.77
2018-05-18T05:56:06.139Z,12.83
2018-05-18T05:58:34.530Z,12.53
2018-05-18T06:01:02.776Z,12.54
2018-05-18T06:03:31.339Z,12.70
2018-05-18T06:06:00.454Z,12.69
2018-05-18T06:08:28.823Z,12.99
2018-05-18T06:10:57.183Z,13.07
2018-05-18T06:13:25.586Z,13.14
2018-05-18T06:15:53.915Z,13.30
2018-05-18T06:18:22.236Z,13.17
2018-05-18T06:20:51.428Z,13.24
2018-05-18T06:23:19.825Z,13.11
2018-05-18T06:25:48.430Z,13.20
2018-05-18T06:28:17.011Z,13.36
2018-05-18T06:30:45.331Z,13.63
2018-05-18T06:33:13.638Z,13.45
2018-05-18T06:35:41.960Z,13.35
2018-05-18T06:38:10.259Z,13.37
2018-05-18T06:40:38.581Z,13.27
2018-05-18T06:43:06.849Z,13.42
2018-05-18T06:45:35.217Z,13.35
2018-05-18T06:48:03.559Z,13.41
2018-05-18T06:50:32.230Z,13.65
2018-05-18T06:53:00.580Z,13.87
2018-05-18T06:55:29.744Z,14.16
2018-05-18T06:57:58.381Z,14.33
2018-05-18T07:00:27.786Z,14.32
2018-05-18T07:02:56.100Z,14.39
2018-05-18T07:05:24.589Z,14.27
2018-05-18T07:07:52.960Z,14.38
2018-05-18T07:10:21.401Z,14.50
2018-05-18T07:12:49.726Z,14.53
2018-05-18T07:15:18.003Z,14.40
2018-05-18T07:17:46.320Z,14.68
2018-05-18T07:20:16.300Z,14.90
2018-05-18T07:22:44.646Z,15.08
2018-05-18T07:25:13.110Z,14.75
2018-05-18T07:27:41.402Z,14.69
2018-05-18T07:30:09.797Z,14.79
2018-05-18T07:32:38.040Z,15.05
2018-05-18T07:35:06.331Z,15.30
2018-05-18T07:37:34.790Z,15.43
2018-05-18T07:40:03.121Z,15.48
2018-05-18T07:42:31.440Z,15.24
2018-05-18T07:44:59.737Z,15.08
2018-05-18T07:47:28.113Z,15.11
2018-05-18T07:49:56.507Z,14.97
2018-05-18T07:52:24.803Z,15.24
2018-05-18T07:54:53.188Z,15.24
2018-05-18T07:57:21.539Z,15.16
2018-05-18T07:59:49.911Z,15.04
2018-05-18T08:02:19.982Z,15.18
2018-05-18T08:04:48.363Z,15.50
2018-05-18T08:07:16.669Z,15.44
2018-05-18T08:09:45.102Z,15.65
2018-05-18T08:12:14.091Z,15.45
2018-05-18T08:14:43.662Z,15.69
2018-05-18T08:17:12.208Z,15.95
2018-05-18T08:19:40.527Z,16.23
2018-05-18T08:22:08.858Z,16.42
2018-05-18T08:24:37.260Z,16.45
2018-05-18T08:27:17.358Z,16.80
2018-05-18T08:29:45.889Z,16.89
2018-05-18T08:32:14.217Z,17.03
2018-05-18T08:34:42.496Z,16.66
2018-05-18T08:37:10.815Z,16.58
2018-05-18T08:39:39.090Z,16.57
2018-05-18T08:42:07.408Z,16.78
2018-05-18T08:44:35.878Z,16.77
2018-05-18T08:47:05.496Z,16.88
2018-05-18T08:49:33.847Z,16.63
2018-05-18T08:52:03.109Z,16.61
2018-05-18T08:54:31.419Z,16.89
2018-05-18T08:56:59.732Z,17.25
2018-05-18T08:59:28.317Z,17.48
2018-05-18T09:01:56.917Z,16.95
2018-05-18T09:04:25.215Z,17.27
2018-05-18T09:06:53.629Z,17.36
2018-05-18T09:09:21.948Z,17.22
2018-05-18T09:11:50.352Z,17.61
2018-05-18T09:14:18.704Z,17.92
2018-05-18T09:16:47.040Z,17.36
2018-05-18T09:19:15.592Z,17.41
2018-05-18T09:21:43.872Z,17.71
2018-05-18T09:24:12.202Z,17.47
2018-05-18T09:26:41.420Z,17.72
2018-05-18T09:29:09.737Z,18.15
2018-05-18T09:31:38.103Z,18.00
2018-05-18T09:34:06.471Z,18.32
2018-05-18T09:36:34.709Z,17.90
2018-05-18T09:39:03.023Z,17.63
2018-05-18T09:41:31.294Z,17.73
2018-05-18T09:43:59.770Z,18.26
2018-05-18T09:46:28.144Z,18.61
2018-05-18T09:48:56.583Z,18.43
2018-05-18T09:51:24.936Z,18.66
2018-05-18T09:53:53.251Z,18.69
2018-05-18T09:56:22.331Z,18.27
2018-05-18T09:58:50.672Z,18.10
2018-05-18T10:01:19.334Z,18.32
2018-05-18T10:03:47.636Z,18.48
2018-05-18T10:06:16.036Z,18.69
2018-05-18T10:08:44.354Z,18.99
2018-05-18T10:11:12.763Z,19.13
2018-05-18T10:13:41.015Z,19.41
2018-05-18T10:16:10.227Z,18.68
2018-05-18T10:18:39.257Z,18.30
2018-05-18T10:21:07.502Z,18.64
2018-05-18T10:23:35.838Z,19.07
2018-05-18T10:26:05.064Z,19.37
2018-05-18T10:28:33.375Z,19.75
2018-05-18T10:31:02.434Z,19.65
2018-05-18T10:33:34.075Z,19.23
2018-05-18T10:36:02.611Z,18.89
2018-05-18T10:38:31.195Z,18.71
2018-05-18T10:40:59.629Z,18.93
2018-05-18T10:43:28.070Z,18.99
2018-05-18T10:45:57.014Z,19.05
2018-05-18T10:48:25.309Z,19.06
2018-05-18T10:50:53.659Z,19.09
2018-05-18T10:53:22.052Z,19.07
2018-05-18T10:55:50.460Z,19.06
2018-05-18T10:58:18.845Z,19.41
2018-05-18T11:00:47.203Z,19.62
2018-05-18T11:03:15.631Z,19.43
2018-05-18T11:05:43.954Z,19.68
2018-05-18T11:08:12.361Z,19.44
2018-05-18T11:10:40.641Z,19.82
2018-05-18T11:13:09.937Z,20.32
2018-05-18T11:15:38.267Z,20.07
2018-05-18T11:18:08.055Z,20.15
2018-05-18T11:20:37.074Z,20.48
2018-05-18T11:23:05.555Z,20.47
2018-05-18T11:25:33.910Z,20.78
2018-05-18T11:30:43.386Z,20.85
2018-05-18T11:33:11.781Z,20.63
2018-05-18T11:35:40.226Z,20.60
2018-05-18T11:38:08.519Z,20.31
2018-05-18T11:40:41.886Z,20.49
2018-05-18T11:43:10.223Z,20.78
2018-05-18T11:45:40.412Z,21.03
2018-05-18T11:48:09.189Z,21.25
2018-05-18T11:50:38.166Z,21.32
2018-05-18T11:53:06.819Z,21.07
2018-05-18T11:55:35.553Z,21.36
2018-05-18T11:58:04.168Z,20.66
2018-05-18T12:00:33.227Z,20.54
2018-05-18T12:03:01.986Z,20.75
2018-05-18T12:05:30.424Z,21.36
2018-05-18T12:08:00.496Z,21.73
2018-05-18T12:10:32.366Z,21.79
2018-05-18T12:13:02.476Z,21.86
2018-05-18T12:15:31.699Z,21.41
2018-05-18T12:18:04.307Z,21.37
2018-05-18T12:20:32.708Z,21.83
2018-05-18T12:23:01.657Z,21.85
2018-05-18T12:25:30.435Z,22.24
2018-05-18T12:27:59.911Z,22.44
2018-05-18T12:30:29.440Z,22.07
2018-05-18T12:32:58.578Z,21.69
2018-05-18T12:35:26.889Z,21.65
2018-05-18T12:37:55.208Z,22.24
2018-05-18T12:40:23.550Z,21.86
2018-05-18T12:42:51.921Z,21.98
2018-05-18T12:45:20.287Z,22.02
2018-05-18T12:47:48.656Z,22.18
2018-05-18T12:50:16.971Z,22.04
2018-05-18T12:52:45.288Z,22.45
2018-05-18T12:55:13.658Z,22.67
2018-05-18T12:57:42.004Z,22.66
2018-05-18T13:00:10.294Z,22.41
2018-05-18T13:02:38.678Z,22.45
2018-05-18T13:05:07.865Z,22.95
2018-05-18T13:07:36.231Z,22.99
2018-05-18T13:10:04.608Z,23.06
2018-05-18T13:12:33.230Z,23.18
2018-05-18T13:15:01.695Z,23.15
2018-05-18T13:17:30.029Z,23.34
2018-05-18T13:19:58.353Z,23.33
2018-05-18T13:22:26.716Z,23.11
2018-05-18T13:24:55.106Z,23.32
2018-05-18T13:27:23.439Z,23.76
2018-05-18T13:29:51.732Z,23.56
2018-05-18T13:32:20.126Z,23.85
2018-05-18T13:34:48.448Z,23.64
2018-05-18T13:37:16.775Z,23.15
2018-05-18T13:39:45.311Z,23.48
2018-05-18T13:42:13.651Z,24.05
2018-05-18T13:44:42.109Z,24.37
2018-05-18T13:47:10.418Z,23.68
2018-05-18T13:49:38.827Z,23.62
2018-05-18T13:52:07.230Z,23.96
2018-05-18T13:54:35.691Z,23.93
2018-05-18T13:57:04.124Z,24.47
2018-05-18T13:59:32.391Z,24.03
2018-05-18T14:02:00.682Z,23.96
2018-05-18T14:04:29.003Z,24.41
2018-05-18T14:06:57.294Z,24.79
2018-05-18T14:09:25.596Z,24.40
2018-05-18T14:11:53.893Z,24.02
2018-05-18T14:14:22.397Z,23.45
2018-05-18T14:16:50.636Z,23.70
2018-05-18T14:19:19.278Z,23.84
2018-05-18T14:21:47.635Z,24.09
2018-05-18T14:24:15.984Z,23.99
2018-05-18T14:26:44.306Z,23.89
2018-05-18T14:29:13.397Z,24.16
2018-05-18T14:31:41.725Z,24.39
2018-05-18T14:34:10.034Z,25.14
2018-05-18T14:36:38.356Z,25.18
2018-05-18T14:39:06.703Z,24.90
2018-05-18T14:41:35.019Z,24.74
2018-05-18T14:44:03.394Z,24.49
2018-05-18T14:46:31.870Z,24.72
2018-05-18T14:49:00.182Z,24.74
2018-05-18T14:51:28.500Z,25.33
2018-05-18T14:53:56.781Z,25.29
2018-05-18T14:56:26.118Z,24.83
2018-05-18T14:58:54.484Z,24.63
2018-05-18T15:01:22.812Z,24.64
2018-05-18T15:03:51.148Z,24.99
2018-05-18T15:06:19.484Z,26.26
2018-05-18T15:08:47.878Z,27.04
2018-05-18T15:11:16.421Z,26.36
2018-05-18T15:13:44.932Z,25.51
2018-05-18T15:16:13.297Z,25.13
2018-05-18T15:18:41.604Z,25.48
2018-05-18T15:21:09.915Z,25.54
2018-05-18T15:23:38.949Z,25.60
2018-05-18T15:26:07.226Z,26.13
2018-05-18T15:28:35.676Z,25.08
2018-05-18T15:31:03.978Z,25.24
2018-05-18T15:33:32.501Z,25.39
2018-05-18T15:36:00.911Z,25.68
2018-05-18T15:38:29.323Z,27.17
2018-05-18T15:40:59.456Z,27.92
2018-05-18T15:43:27.835Z,27.99
2018-05-18T15:46:05.715Z,28.05
2018-05-18T15:48:34.101Z,27.04
2018-05-18T15:51:02.924Z,27.17
2018-05-18T15:53:31.580Z,26.55
2018-05-18T15:55:59.970Z,26.31
2018-05-18T15:58:28.688Z,26.13
2018-05-18T16:00:57.071Z,25.69
2018-05-18T16:03:28.132Z,25.15
2018-05-18T16:05:56.838Z,24.18
2018-05-18T16:08:25.210Z,24.35
2018-05-18T16:10:53.588Z,24.55
2018-05-18T16:13:22.063Z,25.12
2018-05-18T16:15:50.418Z,25.50
2018-05-18T16:18:18.758Z,24.99
2018-05-18T16:20:47.174Z,24.16
2018-05-18T16:23:15.599Z,24.29
2018-05-18T16:25:44.079Z,25.27
2018-05-18T16:28:12.445Z,25.79
2018-05-18T16:30:41.764Z,25.08
2018-05-18T16:33:10.064Z,25.15
2018-05-18T16:35:39.777Z,25.20
2018-05-18T16:38:09.372Z,24.27
2018-05-18T16:40:38.568Z,24.45
2018-05-18T16:43:06.972Z,24.24
2018-05-18T16:45:35.422Z,23.60
2018-05-18T16:48:03.862Z,23.91
2018-05-18T16:50:32.160Z,23.46
2018-05-18T16:53:00.474Z,23.14
2018-05-18T16:55:30.738Z,22.98
2018-05-18T16:57:59.242Z,22.61
2018-05-18T17:00:27.580Z,22.82
2018-05-18T17:02:55.961Z,23.34
2018-05-18T17:05:24.259Z,23.35
2018-05-18T17:07:52.578Z,23.53
2018-05-18T17:10:20.989Z,23.69
2018-05-18T17:12:50.232Z,23.71
2018-05-18T17:15:19.025Z,23.55
2018-05-18T17:17:47.791Z,23.50
2018-05-18T17:20:16.262Z,23.53
2018-05-18T17:22:44.795Z,23.33
2018-05-18T17:25:13.083Z,23.17
2018-05-18T17:27:41.371Z,23.24
2018-05-18T17:30:10.127Z,22.42
2018-05-18T17:32:38.544Z,21.83
2018-05-18T17:35:08.063Z,22.01
2018-05-18T17:37:36.533Z,22.12
2018-05-18T17:40:05.607Z,22.02
2018-05-18T17:42:33.951Z,22.13
2018-05-18T17:45:02.364Z,22.18
2018-05-18T17:47:30.813Z,22.28
2018-05-18T17:49:59.303Z,22.39
2018-05-18T17:52:27.842Z,22.29
2018-05-18T17:54:56.319Z,22.19
2018-05-18T17:57:24.741Z,22.10
2018-05-18T17:59:53.076Z,21.97
2018-05-18T18:02:21.533Z,21.86
2018-05-18T18:04:49.893Z,21.70
2018-05-18T18:07:18.402Z,21.76
2018-05-18T18:09:46.679Z,21.75
2018-05-18T18:12:15.007Z,21.60
2018-05-18T18:14:45.125Z,21.62
2018-05-18T18:17:13.563Z,21.60
2018-05-18T18:19:42.404Z,21.51
2018-05-18T18:22:10.720Z,21.32
2018-05-18T18:24:39.128Z,21.23
2018-05-18T18:27:07.500Z,21.28
2018-05-18T18:29:35.770Z,21.20
2018-05-18T18:32:05.158Z,21.08
2018-05-18T18:34:34.406Z,20.96
2018-05-18T18:37:02.746Z,20.93
2018-05-18T18:39:31.190Z,20.95
2018-05-18T18:41:59.498Z,20.90
2018-05-18T18:44:27.788Z,20.84
2018-05-18T18:46:56.098Z,20.72
2018-05-18T18:49:24.956Z,20.70
2018-05-18T18:51:53.343Z,21.05
2018-05-18T18:54:24.047Z,21.94
2018-05-18T18:56:52.356Z,22.49
2018-05-18T18:59:20.784Z,22.57
2018-05-18T19:01:49.455Z,22.76
2018-05-18T19:04:18.642Z,22.52
2018-05-18T19:06:46.961Z,22.36
2018-05-18T19:09:15.263Z,22.69
2018-05-18T19:11:43.542Z,22.56
2018-05-18T19:14:11.963Z,22.52
2018-05-18T19:16:40.394Z,22.50
2018-05-18T19:19:08.709Z,22.14
2018-05-18T19:21:37.047Z,22.34
2018-05-18T19:24:05.638Z,22.44
2018-05-18T19:26:34.287Z,22.53
2018-05-18T19:29:02.698Z,22.46
2018-05-18T19:31:31.128Z,22.28
2018-05-18T19:34:02.735Z,22.56
2018-05-18T19:36:32.411Z,22.69
2018-05-18T19:39:02.887Z,22.71
2018-05-18T19:41:35.734Z,22.75
2018-05-18T19:44:08.225Z,22.64
2018-05-18T19:46:37.495Z,22.58
2018-05-18T19:49:10.779Z,22.38
2018-05-18T19:51:40.370Z,22.35
2018-05-18T19:54:08.759Z,22.37
2018-05-18T19:56:37.557Z,22.44
2018-05-18T19:59:07.119Z,22.50
2018-05-18T20:01:36.255Z,22.44
2018-05-18T20:04:04.634Z,22.30
2018-05-18T20:06:32.947Z,22.27
2018-05-18T20:09:01.272Z,22.27
2018-05-18T20:11:29.610Z,22.25
2018-05-18T20:13:57.908Z,22.22
2018-05-18T20:16:26.272Z,22.12
2018-05-18T20:18:54.613Z,22.09
2018-05-18T20:21:22.950Z,22.15
2018-05-18T20:23:52.110Z,22.11
2018-05-18T20:26:21.240Z,22.17
2018-05-18T20:28:55.374Z,22.03
2018-05-18T20:31:24.134Z,22.05
2018-05-18T20:33:52.505Z,22.01
2018-05-18T20:36:20.873Z,21.85
2018-05-18T20:38:49.175Z,21.79
2018-05-18T20:41:17.483Z,21.81
2018-05-18T20:43:46.644Z,21.68
2018-05-18T20:46:14.957Z,21.47
2018-05-18T20:48:43.294Z,21.39
2018-05-18T20:51:11.735Z,21.44
2018-05-18T20:53:40.057Z,21.31
2018-05-18T20:56:08.342Z,21.34
2018-05-18T20:58:36.791Z,21.26
2018-05-18T21:01:05.812Z,21.26
2018-05-18T21:03:34.277Z,21.38
2018-05-18T21:06:02.498Z,21.50
2018-05-18T21:08:31.372Z,21.54
2018-05-18T21:10:59.720Z,21.37
2018-05-18T21:13:28.051Z,21.32
2018-05-18T21:15:56.544Z,21.26
2018-05-18T21:18:24.901Z,21.20
2018-05-18T21:20:53.276Z,21.17
2018-05-18T21:23:21.717Z,21.18
2018-05-18T21:25:50.435Z,20.98
2018-05-18T21:28:18.767Z,21.04
2018-05-18T21:30:47.079Z,20.99
2018-05-18T21:33:15.358Z,21.03
2018-05-18T21:35:44.097Z,21.19
2018-05-18T21:38:13.907Z,21.06
2018-05-18T21:40:42.257Z,21.09
2018-05-18T21:43:10.530Z,20.73
2018-05-18T21:45:38.847Z,20.75
2018-05-18T21:48:07.129Z,20.88
2018-05-18T21:50:35.460Z,20.70
2018-05-18T21:53:03.734Z,20.37
2018-05-18T21:55:32.151Z,20.23
2018-05-18T21:58:00.432Z,20.31
2018-05-18T22:00:28.788Z,20.24
2018-05-18T22:02:57.127Z,19.85
2018-05-18T22:05:25.437Z,20.02
2018-05-18T22:07:53.727Z,20.19
2018-05-18T22:10:22.019Z,20.45
2018-05-18T22:12:50.335Z,20.12
2018-05-18T22:15:18.632Z,19.71
2018-05-18T22:17:46.920Z,19.66
2018-05-18T22:20:15.846Z,18.77
2018-05-18T22:22:44.209Z,17.87
2018-05-18T22:25:12.644Z,16.96
2018-05-18T22:27:40.930Z,16.48
2018-05-18T22:30:09.355Z,16.18
2018-05-18T22:32:53.950Z,16.00
2018-05-18T22:35:22.230Z,15.89
2018-05-18T22:37:50.557Z,15.75
2018-05-18T22:40:18.831Z,15.61
2018-05-18T22:42:47.111Z,15.33
2018-05-18T22:45:15.475Z,15.22
2018-05-18T22:47:43.780Z,15.03
2018-05-18T22:50:12.550Z,15.12
2018-05-18T22:52:40.919Z,15.16
2018-05-18T22:55:09.269Z,15.14
2018-05-18T22:57:37.610Z,14.94
2018-05-18T23:00:05.915Z,14.74
2018-05-18T23:02:34.326Z,14.62
2018-05-18T23:05:02.709Z,14.52
2018-05-18T23:07:30.995Z,14.51
2018-05-18T23:09:59.284Z,14.45
2018-05-18T23:12:27.647Z,14.48
2018-05-18T23:14:56.012Z,14.31
2018-05-18T23:17:25.196Z,14.24
2018-05-18T23:19:53.535Z,14.45
2018-05-18T23:22:21.858Z,14.49
2018-05-18T23:24:50.234Z,14.56
2018-05-18T23:27:18.544Z,14.69
2018-05-18T23:29:46.891Z,14.77
2018-05-18T23:32:15.213Z,14.66
2018-05-18T23:34:43.634Z,14.51
2018-05-18T23:37:11.944Z,14.44
2018-05-18T23:39:40.258Z,14.38
2018-05-18T23:42:08.535Z,14.40
2018-05-18T23:44:36.877Z,14.43
2018-05-18T23:47:05.563Z,14.31
2018-05-18T23:49:33.907Z,14.38
2018-05-18T23:52:02.203Z,14.17
2018-05-18T23:54:30.509Z,14.23
2018-05-18T23:56:58.798Z,14.09
2018-05-18T23:59:27.117Z,14.10
